sensor_id;sensor_type;location;lat;lon;timestamp;P1;durP1;ratioP1;P2;durP2;ratioP2
60478;SDS011;46321;48.398;11.754;2022-07-29T00:01:47;4.97;;;3.00;;
60478;SDS011;46321;48.398;11.754;2022-07-29T00:04:12;4.43;;;3.00;;
60478;SDS011;46321;48.398;11.754;2022-07-29T00:06:38;3.77;;;3.17;;
60478;SDS011;46321;48.398;11.754;2022-07-29T00:09:03;4.03;;;3.00;;
60478;SDS011;46321;48.398;11.754;2022-07-29T00:11:28;3.55;;;2.63;;
60478;SDS011;46321;48.398;11.754;2022-07-29T00:13:54;3.67;;;3.07;;
60478;SDS011;46321;48.398;11.754;2022-07-29T00:16:19;4.32;;;2.70;;
60478;SDS011;46321;48.398;11.754;2022-07-29T00:18:44;3.78;;;3.00;;
60478;SDS011;46321;48.398;11.754;2022-07-29T00:21:10;3.20;;;2.90;;
60478;SDS011;46321;48.398;11.754;2022-07-29T00:23:35;5.95;;;2.60;;
60478;SDS011;46321;48.398;11.754;2022-07-29T00:26:00;3.37;;;2.80;;
60478;SDS011;46321;48.398;11.754;2022-07-29T00:28:26;4.15;;;2.80;;
60478;SDS011;46321;48.398;11.754;2022-07-29T00:30:51;4.15;;;2.67;;
60478;SDS011;46321;48.398;11.754;2022-07-29T00:33:16;2.95;;;2.63;;
60478;SDS011;46321;48.398;11.754;2022-07-29T00:35:42;3.33;;;2.63;;
60478;SDS011;46321;48.398;11.754;2022-07-29T00:38:13;3.28;;;2.88;;
60478;SDS011;46321;48.398;11.754;2022-07-29T00:40:40;3.58;;;2.70;;
60478;SDS011;46321;48.398;11.754;2022-07-29T00:43:06;3.95;;;2.80;;
60478;SDS011;46321;48.398;11.754;2022-07-29T00:45:32;3.65;;;3.03;;
60478;SDS011;46321;48.398;11.754;2022-07-29T00:47:57;3.38;;;2.40;;
60478;SDS011;46321;48.398;11.754;2022-07-29T00:50:23;4.18;;;2.50;;
60478;SDS011;46321;48.398;11.754;2022-07-29T00:52:48;5.05;;;2.78;;
60478;SDS011;46321;48.398;11.754;2022-07-29T00:55:15;5.03;;;2.40;;
60478;SDS011;46321;48.398;11.754;2022-07-29T00:57:41;3.50;;;2.42;;
60478;SDS011;46321;48.398;11.754;2022-07-29T01:00:10;2.85;;;2.50;;
60478;SDS011;46321;48.398;11.754;2022-07-29T01:02:37;4.65;;;2.88;;
60478;SDS011;46321;48.398;11.754;2022-07-29T01:05:02;5.75;;;2.80;;
60478;SDS011;46321;48.398;11.754;2022-07-29T01:07:29;2.35;;;2.15;;
60478;SDS011;46321;48.398;11.754;2022-07-29T01:09:57;3.08;;;2.50;;
60478;SDS011;46321;48.398;11.754;2022-07-29T01:12:24;3.58;;;2.80;;
60478;SDS011;46321;48.398;11.754;2022-07-29T01:14:51;3.90;;;2.42;;
60478;SDS011;46321;48.398;11.754;2022-07-29T01:17:21;4.32;;;3.10;;
60478;SDS011;46321;48.398;11.754;2022-07-29T01:19:53;4.15;;;2.90;;
60478;SDS011;46321;48.398;11.754;2022-07-29T01:30:41;2.50;;;2.20;;
60478;SDS011;46321;48.398;11.754;2022-07-29T01:33:10;3.45;;;2.60;;
60478;SDS011;46321;48.398;11.754;2022-07-29T01:35:58;3.25;;;2.20;;
60478;SDS011;46321;48.398;11.754;2022-07-29T01:38:26;2.95;;;1.98;;
60478;SDS011;46321;48.398;11.754;2022-07-29T01:40:56;3.78;;;1.90;;
60478;SDS011;46321;48.398;11.754;2022-07-29T01:43:30;5.20;;;2.50;;
60478;SDS011;46321;48.398;11.754;2022-07-29T01:46:04;2.58;;;1.85;;
60478;SDS011;46321;48.398;11.754;2022-07-29T01:48:42;3.67;;;2.30;;
60478;SDS011;46321;48.398;11.754;2022-07-29T01:51:14;3.08;;;2.00;;
60478;SDS011;46321;48.398;11.754;2022-07-29T01:56:26;3.08;;;1.90;;
60478;SDS011;46321;48.398;11.754;2022-07-29T01:58:55;3.95;;;2.10;;
60478;SDS011;46321;48.398;11.754;2022-07-29T02:01:22;2.85;;;2.40;;
60478;SDS011;46321;48.398;11.754;2022-07-29T02:03:49;2.90;;;2.13;;
60478;SDS011;46321;48.398;11.754;2022-07-29T02:06:19;3.33;;;2.10;;
60478;SDS011;46321;48.398;11.754;2022-07-29T02:08:47;3.15;;;2.20;;
60478;SDS011;46321;48.398;11.754;2022-07-29T02:11:15;5.00;;;2.33;;
60478;SDS011;46321;48.398;11.754;2022-07-29T02:13:41;5.68;;;2.60;;
60478;SDS011;46321;48.398;11.754;2022-07-29T02:16:08;2.58;;;2.17;;
60478;SDS011;46321;48.398;11.754;2022-07-29T02:18:36;2.60;;;2.20;;
60478;SDS011;46321;48.398;11.754;2022-07-29T02:21:03;3.15;;;2.28;;
60478;SDS011;46321;48.398;11.754;2022-07-29T02:23:29;4.63;;;2.28;;
60478;SDS011;46321;48.398;11.754;2022-07-29T02:25:57;3.67;;;2.15;;
60478;SDS011;46321;48.398;11.754;2022-07-29T02:28:25;3.05;;;2.40;;
60478;SDS011;46321;48.398;11.754;2022-07-29T02:30:53;4.03;;;2.97;;
60478;SDS011;46321;48.398;11.754;2022-07-29T02:33:22;3.25;;;2.35;;
60478;SDS011;46321;48.398;11.754;2022-07-29T02:35:49;3.08;;;2.40;;
60478;SDS011;46321;48.398;11.754;2022-07-29T02:38:15;4.00;;;1.80;;
60478;SDS011;46321;48.398;11.754;2022-07-29T02:41:01;3.08;;;2.03;;
60478;SDS011;46321;48.398;11.754;2022-07-29T02:43:29;3.35;;;1.88;;
60478;SDS011;46321;48.398;11.754;2022-07-29T02:45:55;3.15;;;2.17;;
60478;SDS011;46321;48.398;11.754;2022-07-29T02:48:22;2.55;;;1.80;;
60478;SDS011;46321;48.398;11.754;2022-07-29T02:51:08;3.20;;;2.10;;
60478;SDS011;46321;48.398;11.754;2022-07-29T02:53:41;2.00;;;1.80;;
60478;SDS011;46321;48.398;11.754;2022-07-29T02:56:11;2.42;;;1.88;;
60478;SDS011;46321;48.398;11.754;2022-07-29T02:58:51;2.92;;;2.22;;
60478;SDS011;46321;48.398;11.754;2022-07-29T03:01:21;2.13;;;1.80;;
60478;SDS011;46321;48.398;11.754;2022-07-29T03:03:48;2.50;;;2.05;;
60478;SDS011;46321;48.398;11.754;2022-07-29T03:06:16;3.50;;;1.88;;
60478;SDS011;46321;48.398;11.754;2022-07-29T03:08:42;3.35;;;1.88;;
60478;SDS011;46321;48.398;11.754;2022-07-29T03:11:10;2.45;;;1.80;;
60478;SDS011;46321;48.398;11.754;2022-07-29T03:13:37;2.65;;;1.80;;
60478;SDS011;46321;48.398;11.754;2022-07-29T03:16:03;3.47;;;1.77;;
60478;SDS011;46321;48.398;11.754;2022-07-29T03:18:30;2.08;;;1.70;;
60478;SDS011;46321;48.398;11.754;2022-07-29T03:20:56;2.15;;;1.90;;
60478;SDS011;46321;48.398;11.754;2022-07-29T03:23:22;5.75;;;2.05;;
60478;SDS011;46321;48.398;11.754;2022-07-29T03:25:52;2.97;;;1.85;;
60478;SDS011;46321;48.398;11.754;2022-07-29T03:28:18;2.42;;;1.80;;
60478;SDS011;46321;48.398;11.754;2022-07-29T03:30:44;2.63;;;2.20;;
60478;SDS011;46321;48.398;11.754;2022-07-29T03:33:10;4.32;;;1.95;;
60478;SDS011;46321;48.398;11.754;2022-07-29T03:35:35;5.30;;;2.00;;
60478;SDS011;46321;48.398;11.754;2022-07-29T03:38:00;2.30;;;1.85;;
60478;SDS011;46321;48.398;11.754;2022-07-29T03:40:27;4.50;;;1.88;;
60478;SDS011;46321;48.398;11.754;2022-07-29T03:43:01;3.08;;;2.47;;
60478;SDS011;46321;48.398;11.754;2022-07-29T03:45:29;2.75;;;2.08;;
60478;SDS011;46321;48.398;11.754;2022-07-29T03:47:57;3.00;;;2.13;;
60478;SDS011;46321;48.398;11.754;2022-07-29T03:50:27;2.78;;;2.08;;
60478;SDS011;46321;48.398;11.754;2022-07-29T03:52:54;3.35;;;2.00;;
60478;SDS011;46321;48.398;11.754;2022-07-29T03:55:20;2.30;;;1.95;;
60478;SDS011;46321;48.398;11.754;2022-07-29T03:57:45;5.05;;;1.95;;
60478;SDS011;46321;48.398;11.754;2022-07-29T04:00:12;3.33;;;2.00;;
60478;SDS011;46321;48.398;11.754;2022-07-29T04:02:38;3.85;;;1.90;;
60478;SDS011;46321;48.398;11.754;2022-07-29T04:05:04;3.63;;;2.20;;
60478;SDS011;46321;48.398;11.754;2022-07-29T04:07:29;2.90;;;2.30;;
60478;SDS011;46321;48.398;11.754;2022-07-29T04:09:55;3.00;;;2.13;;
60478;SDS011;46321;48.398;11.754;2022-07-29T04:12:20;9.23;;;2.33;;
60478;SDS011;46321;48.398;11.754;2022-07-29T04:14:45;3.22;;;1.98;;
60478;SDS011;46321;48.398;11.754;2022-07-29T04:17:11;2.65;;;2.28;;
60478;SDS011;46321;48.398;11.754;2022-07-29T04:19:36;4.00;;;2.50;;
60478;SDS011;46321;48.398;11.754;2022-07-29T04:22:02;3.15;;;2.08;;
60478;SDS011;46321;48.398;11.754;2022-07-29T04:24:27;3.80;;;2.03;;
60478;SDS011;46321;48.398;11.754;2022-07-29T04:26:52;2.83;;;2.17;;
60478;SDS011;46321;48.398;11.754;2022-07-29T04:29:18;2.78;;;2.10;;
60478;SDS011;46321;48.398;11.754;2022-07-29T04:31:44;2.65;;;2.08;;
60478;SDS011;46321;48.398;11.754;2022-07-29T04:34:10;4.00;;;2.15;;
60478;SDS011;46321;48.398;11.754;2022-07-29T04:36:36;4.38;;;2.40;;
60478;SDS011;46321;48.398;11.754;2022-07-29T04:39:01;4.97;;;2.40;;
60478;SDS011;46321;48.398;11.754;2022-07-29T04:41:27;3.30;;;2.50;;
60478;SDS011;46321;48.398;11.754;2022-07-29T04:43:53;3.13;;;2.28;;
60478;SDS011;46321;48.398;11.754;2022-07-29T04:46:18;4.30;;;2.20;;
60478;SDS011;46321;48.398;11.754;2022-07-29T04:48:47;3.37;;;2.43;;
60478;SDS011;46321;48.398;11.754;2022-07-29T04:51:12;3.60;;;2.53;;
60478;SDS011;46321;48.398;11.754;2022-07-29T04:53:38;2.83;;;2.30;;
60478;SDS011;46321;48.398;11.754;2022-07-29T04:56:04;3.17;;;2.72;;
60478;SDS011;46321;48.398;11.754;2022-07-29T04:58:30;2.67;;;2.17;;
60478;SDS011;46321;48.398;11.754;2022-07-29T05:00:55;3.38;;;2.60;;
60478;SDS011;46321;48.398;11.754;2022-07-29T05:03:21;8.60;;;2.35;;
60478;SDS011;46321;48.398;11.754;2022-07-29T05:05:46;5.00;;;2.40;;
60478;SDS011;46321;48.398;11.754;2022-07-29T05:08:11;3.30;;;2.20;;
60478;SDS011;46321;48.398;11.754;2022-07-29T05:10:36;3.10;;;2.20;;
60478;SDS011;46321;48.398;11.754;2022-07-29T05:13:04;3.85;;;2.15;;
60478;SDS011;46321;48.398;11.754;2022-07-29T05:15:35;2.60;;;2.10;;
60478;SDS011;46321;48.398;11.754;2022-07-29T05:18:01;5.47;;;2.30;;
60478;SDS011;46321;48.398;11.754;2022-07-29T05:20:27;3.20;;;2.58;;
60478;SDS011;46321;48.398;11.754;2022-07-29T05:22:57;5.07;;;2.58;;
60478;SDS011;46321;48.398;11.754;2022-07-29T05:25:24;4.35;;;2.17;;
60478;SDS011;46321;48.398;11.754;2022-07-29T05:27:52;2.65;;;2.30;;
60478;SDS011;46321;48.398;11.754;2022-07-29T05:30:17;2.92;;;2.50;;
60478;SDS011;46321;48.398;11.754;2022-07-29T05:32:43;2.80;;;2.42;;
60478;SDS011;46321;48.398;11.754;2022-07-29T05:35:09;3.70;;;2.28;;
60478;SDS011;46321;48.398;11.754;2022-07-29T05:37:36;3.25;;;2.20;;
60478;SDS011;46321;48.398;11.754;2022-07-29T05:40:02;2.80;;;2.30;;
60478;SDS011;46321;48.398;11.754;2022-07-29T05:42:28;3.97;;;2.20;;
60478;SDS011;46321;48.398;11.754;2022-07-29T05:44:54;5.07;;;2.22;;
60478;SDS011;46321;48.398;11.754;2022-07-29T05:47:19;2.25;;;2.00;;
60478;SDS011;46321;48.398;11.754;2022-07-29T05:49:44;2.97;;;2.30;;
60478;SDS011;46321;48.398;11.754;2022-07-29T05:52:10;4.10;;;2.20;;
60478;SDS011;46321;48.398;11.754;2022-07-29T05:54:36;2.90;;;2.22;;
60478;SDS011;46321;48.398;11.754;2022-07-29T05:57:02;3.90;;;2.35;;
60478;SDS011;46321;48.398;11.754;2022-07-29T05:59:27;2.72;;;2.22;;
60478;SDS011;46321;48.398;11.754;2022-07-29T06:01:53;2.58;;;1.98;;
60478;SDS011;46321;48.398;11.754;2022-07-29T06:04:19;3.77;;;2.10;;
60478;SDS011;46321;48.398;11.754;2022-07-29T06:06:44;5.03;;;2.30;;
60478;SDS011;46321;48.398;11.754;2022-07-29T06:09:09;5.35;;;3.50;;
60478;SDS011;46321;48.398;11.754;2022-07-29T06:11:35;6.70;;;3.03;;
60478;SDS011;46321;48.398;11.754;2022-07-29T06:14:00;5.43;;;2.33;;
60478;SDS011;46321;48.398;11.754;2022-07-29T06:16:27;3.92;;;1.75;;
60478;SDS011;46321;48.398;11.754;2022-07-29T06:18:52;1.97;;;1.77;;
60478;SDS011;46321;48.398;11.754;2022-07-29T06:21:18;7.10;;;2.00;;
60478;SDS011;46321;48.398;11.754;2022-07-29T06:23:43;3.10;;;1.80;;
60478;SDS011;46321;48.398;11.754;2022-07-29T06:26:09;4.07;;;1.75;;
60478;SDS011;46321;48.398;11.754;2022-07-29T06:28:35;1.92;;;1.65;;
60478;SDS011;46321;48.398;11.754;2022-07-29T06:31:00;2.17;;;1.70;;
60478;SDS011;46321;48.398;11.754;2022-07-29T06:33:25;3.27;;;2.13;;
60478;SDS011;46321;48.398;11.754;2022-07-29T06:35:51;3.77;;;1.67;;
60478;SDS011;46321;48.398;11.754;2022-07-29T06:38:16;2.83;;;1.63;;
60478;SDS011;46321;48.398;11.754;2022-07-29T06:40:44;2.08;;;1.85;;
60478;SDS011;46321;48.398;11.754;2022-07-29T06:43:26;3.13;;;1.70;;
60478;SDS011;46321;48.398;11.754;2022-07-29T06:45:53;1.60;;;1.40;;
60478;SDS011;46321;48.398;11.754;2022-07-29T06:48:20;2.97;;;1.65;;
60478;SDS011;46321;48.398;11.754;2022-07-29T06:50:45;2.00;;;1.70;;
60478;SDS011;46321;48.398;11.754;2022-07-29T06:53:10;3.20;;;1.73;;
60478;SDS011;46321;48.398;11.754;2022-07-29T06:55:36;4.00;;;1.63;;
60478;SDS011;46321;48.398;11.754;2022-07-29T06:58:02;3.40;;;2.08;;
60478;SDS011;46321;48.398;11.754;2022-07-29T07:00:27;11.48;;;7.85;;
60478;SDS011;46321;48.398;11.754;2022-07-29T07:02:52;2.53;;;1.93;;
60478;SDS011;46321;48.398;11.754;2022-07-29T07:05:18;2.05;;;1.75;;
60478;SDS011;46321;48.398;11.754;2022-07-29T07:07:43;5.00;;;1.50;;
60478;SDS011;46321;48.398;11.754;2022-07-29T07:10:08;2.40;;;1.30;;
60478;SDS011;46321;48.398;11.754;2022-07-29T07:12:34;3.17;;;1.60;;
60478;SDS011;46321;48.398;11.754;2022-07-29T07:14:59;2.00;;;1.47;;
60478;SDS011;46321;48.398;11.754;2022-07-29T07:17:24;1.55;;;1.45;;
60478;SDS011;46321;48.398;11.754;2022-07-29T07:19:49;2.10;;;1.27;;
60478;SDS011;46321;48.398;11.754;2022-07-29T07:22:15;1.40;;;1.30;;
60478;SDS011;46321;48.398;11.754;2022-07-29T07:24:40;1.83;;;1.40;;
60478;SDS011;46321;48.398;11.754;2022-07-29T07:27:05;3.80;;;1.45;;
60478;SDS011;46321;48.398;11.754;2022-07-29T07:29:31;2.45;;;1.42;;
60478;SDS011;46321;48.398;11.754;2022-07-29T07:31:57;2.00;;;1.53;;
60478;SDS011;46321;48.398;11.754;2022-07-29T07:34:22;2.28;;;1.55;;
60478;SDS011;46321;48.398;11.754;2022-07-29T07:36:48;1.65;;;1.30;;
60478;SDS011;46321;48.398;11.754;2022-07-29T07:39:13;3.30;;;1.70;;
60478;SDS011;46321;48.398;11.754;2022-07-29T07:41:38;4.53;;;1.70;;
60478;SDS011;46321;48.398;11.754;2022-07-29T07:44:04;2.15;;;1.38;;
60478;SDS011;46321;48.398;11.754;2022-07-29T07:46:29;1.83;;;1.50;;
60478;SDS011;46321;48.398;11.754;2022-07-29T07:48:54;2.60;;;1.50;;
60478;SDS011;46321;48.398;11.754;2022-07-29T07:51:19;2.63;;;1.33;;
60478;SDS011;46321;48.398;11.754;2022-07-29T07:53:45;3.55;;;1.13;;
60478;SDS011;46321;48.398;11.754;2022-07-29T07:56:14;2.03;;;1.55;;
60478;SDS011;46321;48.398;11.754;2022-07-29T07:58:40;3.20;;;1.35;;
60478;SDS011;46321;48.398;11.754;2022-07-29T08:01:05;1.20;;;0.90;;
60478;SDS011;46321;48.398;11.754;2022-07-29T08:03:31;1.30;;;1.20;;
60478;SDS011;46321;48.398;11.754;2022-07-29T08:05:57;2.85;;;1.48;;
60478;SDS011;46321;48.398;11.754;2022-07-29T08:08:23;2.25;;;1.20;;
60478;SDS011;46321;48.398;11.754;2022-07-29T08:10:48;3.40;;;1.30;;
60478;SDS011;46321;48.398;11.754;2022-07-29T08:13:24;4.10;;;1.33;;
60478;SDS011;46321;48.398;11.754;2022-07-29T08:15:53;2.28;;;1.38;;
60478;SDS011;46321;48.398;11.754;2022-07-29T08:18:30;2.28;;;1.23;;
60478;SDS011;46321;48.398;11.754;2022-07-29T08:20:56;2.95;;;1.55;;
60478;SDS011;46321;48.398;11.754;2022-07-29T08:23:22;2.00;;;1.75;;
60478;SDS011;46321;48.398;11.754;2022-07-29T08:25:48;1.65;;;1.30;;
60478;SDS011;46321;48.398;11.754;2022-07-29T08:28:14;2.13;;;1.30;;
60478;SDS011;46321;48.398;11.754;2022-07-29T08:30:40;2.85;;;1.25;;
60478;SDS011;46321;48.398;11.754;2022-07-29T08:33:05;4.70;;;0.98;;
60478;SDS011;46321;48.398;11.754;2022-07-29T08:35:30;1.63;;;1.17;;
60478;SDS011;46321;48.398;11.754;2022-07-29T08:37:56;1.13;;;1.00;;
60478;SDS011;46321;48.398;11.754;2022-07-29T08:40:21;1.65;;;1.35;;
60478;SDS011;46321;48.398;11.754;2022-07-29T08:42:48;1.17;;;0.93;;
60478;SDS011;46321;48.398;11.754;2022-07-29T08:45:15;5.18;;;1.30;;
60478;SDS011;46321;48.398;11.754;2022-07-29T08:47:41;2.90;;;1.20;;
60478;SDS011;46321;48.398;11.754;2022-07-29T08:50:08;3.15;;;1.40;;
60478;SDS011;46321;48.398;11.754;2022-07-29T08:52:35;4.30;;;1.00;;
60478;SDS011;46321;48.398;11.754;2022-07-29T08:55:03;2.40;;;1.20;;
60478;SDS011;46321;48.398;11.754;2022-07-29T08:57:30;1.70;;;1.08;;
60478;SDS011;46321;48.398;11.754;2022-07-29T08:59:57;1.80;;;1.20;;
60478;SDS011;46321;48.398;11.754;2022-07-29T09:02:24;2.75;;;1.20;;
60478;SDS011;46321;48.398;11.754;2022-07-29T09:04:53;1.40;;;1.00;;
60478;SDS011;46321;48.398;11.754;2022-07-29T09:07:18;1.63;;;1.00;;
60478;SDS011;46321;48.398;11.754;2022-07-29T09:09:44;2.63;;;0.87;;
60478;SDS011;46321;48.398;11.754;2022-07-29T09:12:10;1.48;;;1.00;;
60478;SDS011;46321;48.398;11.754;2022-07-29T09:14:37;2.55;;;1.08;;
60478;SDS011;46321;48.398;11.754;2022-07-29T09:17:02;1.63;;;1.05;;
60478;SDS011;46321;48.398;11.754;2022-07-29T09:19:31;3.58;;;1.20;;
60478;SDS011;46321;48.398;11.754;2022-07-29T09:22:04;2.85;;;1.20;;
60478;SDS011;46321;48.398;11.754;2022-07-29T09:24:43;3.10;;;1.60;;
60478;SDS011;46321;48.398;11.754;2022-07-29T09:29:42;1.60;;;1.30;;
60478;SDS011;46321;48.398;11.754;2022-07-29T09:32:08;2.67;;;1.30;;
60478;SDS011;46321;48.398;11.754;2022-07-29T09:34:35;3.38;;;1.30;;
60478;SDS011;46321;48.398;11.754;2022-07-29T09:37:01;5.57;;;1.27;;
60478;SDS011;46321;48.398;11.754;2022-07-29T09:42:03;2.13;;;1.10;;
60478;SDS011;46321;48.398;11.754;2022-07-29T09:47:13;2.88;;;1.25;;
60478;SDS011;46321;48.398;11.754;2022-07-29T09:49:52;4.03;;;1.17;;
60478;SDS011;46321;48.398;11.754;2022-07-29T09:52:18;2.40;;;1.25;;
60478;SDS011;46321;48.398;11.754;2022-07-29T09:54:43;1.48;;;1.20;;
60478;SDS011;46321;48.398;11.754;2022-07-29T09:57:21;1.50;;;1.38;;
60478;SDS011;46321;48.398;11.754;2022-07-29T09:59:55;1.65;;;1.35;;
60478;SDS011;46321;48.398;11.754;2022-07-29T10:02:29;5.15;;;1.50;;
60478;SDS011;46321;48.398;11.754;2022-07-29T10:04:56;1.70;;;1.35;;
60478;SDS011;46321;48.398;11.754;2022-07-29T10:07:22;1.67;;;1.00;;
60478;SDS011;46321;48.398;11.754;2022-07-29T10:09:53;1.17;;;1.02;;
60478;SDS011;46321;48.398;11.754;2022-07-29T10:12:20;1.90;;;1.58;;
60478;SDS011;46321;48.398;11.754;2022-07-29T10:14:46;1.55;;;1.40;;
60478;SDS011;46321;48.398;11.754;2022-07-29T10:17:12;2.08;;;1.35;;
60478;SDS011;46321;48.398;11.754;2022-07-29T10:19:37;3.95;;;1.50;;
60478;SDS011;46321;48.398;11.754;2022-07-29T10:22:07;2.90;;;1.50;;
60478;SDS011;46321;48.398;11.754;2022-07-29T10:24:34;1.50;;;1.30;;
60478;SDS011;46321;48.398;11.754;2022-07-29T10:27:01;2.70;;;1.33;;
60478;SDS011;46321;48.398;11.754;2022-07-29T10:29:28;3.75;;;1.45;;
60478;SDS011;46321;48.398;11.754;2022-07-29T10:32:04;2.17;;;1.60;;
60478;SDS011;46321;48.398;11.754;2022-07-29T10:34:47;3.20;;;1.77;;
60478;SDS011;46321;48.398;11.754;2022-07-29T10:37:28;4.95;;;1.50;;
60478;SDS011;46321;48.398;11.754;2022-07-29T10:43:25;2.17;;;1.60;;
60478;SDS011;46321;48.398;11.754;2022-07-29T10:45:59;2.08;;;1.70;;
60478;SDS011;46321;48.398;11.754;2022-07-29T10:48:25;2.00;;;1.80;;
60478;SDS011;46321;48.398;11.754;2022-07-29T10:50:58;3.53;;;1.60;;
60478;SDS011;46321;48.398;11.754;2022-07-29T10:56:22;2.00;;;1.80;;
60478;SDS011;46321;48.398;11.754;2022-07-29T10:59:22;2.15;;;1.85;;
60478;SDS011;46321;48.398;11.754;2022-07-29T11:01:43;5.53;;;2.20;;
60478;SDS011;46321;48.398;11.754;2022-07-29T11:04:09;2.30;;;2.10;;
60478;SDS011;46321;48.398;11.754;2022-07-29T11:09:28;3.88;;;1.83;;
60478;SDS011;46321;48.398;11.754;2022-07-29T11:11:55;2.95;;;2.40;;
60478;SDS011;46321;48.398;11.754;2022-07-29T11:17:25;4.30;;;2.03;;
60478;SDS011;46321;48.398;11.754;2022-07-29T11:19:50;4.13;;;1.90;;
60478;SDS011;46321;48.398;11.754;2022-07-29T11:22:35;2.70;;;2.42;;
60478;SDS011;46321;48.398;11.754;2022-07-29T11:25:35;4.72;;;2.20;;
60478;SDS011;46321;48.398;11.754;2022-07-29T11:27:54;3.00;;;2.30;;
60478;SDS011;46321;48.398;11.754;2022-07-29T11:30:53;2.90;;;2.10;;
60478;SDS011;46321;48.398;11.754;2022-07-29T11:33:32;3.80;;;2.30;;
60478;SDS011;46321;48.398;11.754;2022-07-29T11:36:31;3.58;;;2.30;;
60478;SDS011;46321;48.398;11.754;2022-07-29T11:38:50;2.15;;;1.95;;
60478;SDS011;46321;48.398;11.754;2022-07-29T11:41:27;3.97;;;2.05;;
60478;SDS011;46321;48.398;11.754;2022-07-29T11:43:55;2.88;;;2.25;;
60478;SDS011;46321;48.398;11.754;2022-07-29T11:49:08;2.53;;;2.33;;
60478;SDS011;46321;48.398;11.754;2022-07-29T11:51:35;2.55;;;2.35;;
60478;SDS011;46321;48.398;11.754;2022-07-29T11:54:02;3.47;;;2.40;;
60478;SDS011;46321;48.398;11.754;2022-07-29T11:56:29;3.40;;;2.35;;
60478;SDS011;46321;48.398;11.754;2022-07-29T11:59:06;3.25;;;2.63;;
60478;SDS011;46321;48.398;11.754;2022-07-29T12:01:34;4.15;;;2.60;;
60478;SDS011;46321;48.398;11.754;2022-07-29T12:04:03;7.75;;;3.70;;
60478;SDS011;46321;48.398;11.754;2022-07-29T12:06:29;4.82;;;3.20;;
60478;SDS011;46321;48.398;11.754;2022-07-29T12:08:55;5.40;;;2.80;;
60478;SDS011;46321;48.398;11.754;2022-07-29T12:11:21;3.95;;;2.70;;
60478;SDS011;46321;48.398;11.754;2022-07-29T12:13:47;4.47;;;2.40;;
60478;SDS011;46321;48.398;11.754;2022-07-29T12:16:12;4.40;;;2.28;;
60478;SDS011;46321;48.398;11.754;2022-07-29T12:18:38;6.17;;;2.27;;
60478;SDS011;46321;48.398;11.754;2022-07-29T12:21:04;3.30;;;2.20;;
60478;SDS011;46321;48.398;11.754;2022-07-29T12:23:30;3.45;;;2.30;;
60478;SDS011;46321;48.398;11.754;2022-07-29T12:25:57;2.72;;;2.40;;
60478;SDS011;46321;48.398;11.754;2022-07-29T12:28:23;2.50;;;2.30;;
60478;SDS011;46321;48.398;11.754;2022-07-29T12:30:49;2.45;;;2.20;;
60478;SDS011;46321;48.398;11.754;2022-07-29T12:33:19;2.80;;;2.25;;
60478;SDS011;46321;48.398;11.754;2022-07-29T12:35:50;3.63;;;2.10;;
60478;SDS011;46321;48.398;11.754;2022-07-29T12:38:18;2.70;;;2.20;;
60478;SDS011;46321;48.398;11.754;2022-07-29T12:40:44;2.42;;;2.20;;
60478;SDS011;46321;48.398;11.754;2022-07-29T12:45:41;2.97;;;2.22;;
60478;SDS011;46321;48.398;11.754;2022-07-29T12:48:08;3.53;;;2.47;;
60478;SDS011;46321;48.398;11.754;2022-07-29T12:50:34;4.00;;;2.38;;
60478;SDS011;46321;48.398;11.754;2022-07-29T12:53:11;2.13;;;1.92;;
60478;SDS011;46321;48.398;11.754;2022-07-29T12:55:41;8.20;;;2.33;;
60478;SDS011;46321;48.398;11.754;2022-07-29T12:58:08;3.72;;;2.30;;
60478;SDS011;46321;48.398;11.754;2022-07-29T13:00:33;3.27;;;2.00;;
60478;SDS011;46321;48.398;11.754;2022-07-29T13:02:59;4.15;;;2.33;;
60478;SDS011;46321;48.398;11.754;2022-07-29T13:05:38;3.20;;;2.20;;
60478;SDS011;46321;48.398;11.754;2022-07-29T13:10:36;3.47;;;2.25;;
60478;SDS011;46321;48.398;11.754;2022-07-29T13:13:05;3.30;;;1.85;;
60478;SDS011;46321;48.398;11.754;2022-07-29T13:15:42;2.28;;;2.08;;
60478;SDS011;46321;48.398;11.754;2022-07-29T13:23:38;2.78;;;2.10;;
60478;SDS011;46321;48.398;11.754;2022-07-29T13:26:09;3.10;;;2.25;;
60478;SDS011;46321;48.398;11.754;2022-07-29T13:28:41;2.60;;;1.83;;
60478;SDS011;46321;48.398;11.754;2022-07-29T13:31:06;4.07;;;1.77;;
60478;SDS011;46321;48.398;11.754;2022-07-29T13:33:32;4.60;;;2.03;;
60478;SDS011;46321;48.398;11.754;2022-07-29T13:35:57;2.33;;;2.13;;
60478;SDS011;46321;48.398;11.754;2022-07-29T13:38:22;3.53;;;1.73;;
60478;SDS011;46321;48.398;11.754;2022-07-29T13:40:47;3.08;;;2.17;;
60478;SDS011;46321;48.398;11.754;2022-07-29T13:43:13;2.37;;;2.10;;
60478;SDS011;46321;48.398;11.754;2022-07-29T13:45:38;2.72;;;2.20;;
60478;SDS011;46321;48.398;11.754;2022-07-29T13:48:04;3.08;;;2.25;;
60478;SDS011;46321;48.398;11.754;2022-07-29T13:50:29;2.95;;;2.38;;
60478;SDS011;46321;48.398;11.754;2022-07-29T13:52:55;4.13;;;2.23;;
60478;SDS011;46321;48.398;11.754;2022-07-29T13:55:20;3.93;;;2.30;;
60478;SDS011;46321;48.398;11.754;2022-07-29T13:57:45;2.90;;;2.60;;
60478;SDS011;46321;48.398;11.754;2022-07-29T14:00:11;2.60;;;2.05;;
60478;SDS011;46321;48.398;11.754;2022-07-29T14:02:37;3.88;;;2.45;;
60478;SDS011;46321;48.398;11.754;2022-07-29T14:05:03;2.97;;;2.20;;
60478;SDS011;46321;48.398;11.754;2022-07-29T14:07:29;4.65;;;2.85;;
60478;SDS011;46321;48.398;11.754;2022-07-29T14:09:54;3.43;;;2.40;;
60478;SDS011;46321;48.398;11.754;2022-07-29T14:12:20;3.57;;;2.20;;
60478;SDS011;46321;48.398;11.754;2022-07-29T14:14:45;5.10;;;2.40;;
60478;SDS011;46321;48.398;11.754;2022-07-29T14:17:11;4.60;;;2.33;;
60478;SDS011;46321;48.398;11.754;2022-07-29T14:19:36;4.60;;;2.47;;
60478;SDS011;46321;48.398;11.754;2022-07-29T14:22:03;4.03;;;2.53;;
60478;SDS011;46321;48.398;11.754;2022-07-29T14:24:29;3.92;;;2.10;;
60478;SDS011;46321;48.398;11.754;2022-07-29T14:26:54;5.80;;;2.30;;
60478;SDS011;46321;48.398;11.754;2022-07-29T14:29:20;4.37;;;2.10;;
60478;SDS011;46321;48.398;11.754;2022-07-29T14:31:45;4.28;;;2.20;;
60478;SDS011;46321;48.398;11.754;2022-07-29T14:34:11;4.17;;;2.17;;
60478;SDS011;46321;48.398;11.754;2022-07-29T14:36:36;8.10;;;2.50;;
60478;SDS011;46321;48.398;11.754;2022-07-29T14:39:01;2.90;;;2.42;;
60478;SDS011;46321;48.398;11.754;2022-07-29T14:41:27;6.95;;;2.30;;
60478;SDS011;46321;48.398;11.754;2022-07-29T14:43:53;9.73;;;4.78;;
60478;SDS011;46321;48.398;11.754;2022-07-29T14:46:18;6.55;;;2.88;;
60478;SDS011;46321;48.398;11.754;2022-07-29T14:48:44;4.70;;;2.70;;
60478;SDS011;46321;48.398;11.754;2022-07-29T14:51:09;6.65;;;2.70;;
60478;SDS011;46321;48.398;11.754;2022-07-29T14:53:35;3.50;;;2.30;;
60478;SDS011;46321;48.398;11.754;2022-07-29T14:56:00;9.18;;;2.70;;
60478;SDS011;46321;48.398;11.754;2022-07-29T14:58:26;4.22;;;2.33;;
60478;SDS011;46321;48.398;11.754;2022-07-29T15:00:51;3.72;;;2.42;;
60478;SDS011;46321;48.398;11.754;2022-07-29T15:03:17;3.47;;;2.60;;
60478;SDS011;46321;48.398;11.754;2022-07-29T15:05:42;5.22;;;2.60;;
60478;SDS011;46321;48.398;11.754;2022-07-29T15:08:08;3.53;;;2.70;;
60478;SDS011;46321;48.398;11.754;2022-07-29T15:10:33;3.93;;;2.53;;
60478;SDS011;46321;48.398;11.754;2022-07-29T15:12:59;3.20;;;2.33;;
60478;SDS011;46321;48.398;11.754;2022-07-29T15:15:24;3.08;;;2.50;;
60478;SDS011;46321;48.398;11.754;2022-07-29T15:17:50;5.05;;;3.03;;
60478;SDS011;46321;48.398;11.754;2022-07-29T15:20:15;5.95;;;2.72;;